createdAt,value
2016-11-22T00:00:22.627Z,19.83
2016-11-22T00:01:22.623Z,19.89
2016-11-22T00:02:22.621Z,19.94
2016-11-22T00:03:22.579Z,19.95
2016-11-22T00:04:22.597Z,19.94
2016-11-22T00:05:22.545Z,19.98
2016-11-22T00:06:22.511Z,19.98
2016-11-22T00:07:22.232Z,19.94
2016-11-22T00:08:22.476Z,20
2016-11-22T00:09:22.486Z,20.01
2016-11-22T00:10:22.144Z,19.97
2016-11-22T00:11:22.431Z,20.08
2016-11-22T00:12:22.165Z,20.1
2016-11-22T00:13:22.140Z,20.07
2016-11-22T00:14:22.452Z,20.1
2016-11-22T00:15:22.386Z,20.12
2016-11-22T00:16:22.387Z,20.05
2016-11-22T00:17:22.401Z,20.16
2016-11-22T00:18:22.351Z,20.13
2016-11-22T00:19:21.984Z,20.15
2016-11-22T00:20:22.306Z,20.15
2016-11-22T00:21:21.693Z,20.05
2016-11-22T00:22:22.255Z,20.04
2016-11-22T00:23:22.246Z,20.07
2016-11-22T00:24:22.245Z,20.08
2016-11-22T00:25:22.218Z,20.08
2016-11-22T00:26:21.888Z,20.07
2016-11-22T00:27:21.878Z,20.1
2016-11-22T00:28:21.889Z,20.15
2016-11-22T00:29:22.144Z,20.05
2016-11-22T00:30:21.822Z,20.2
2016-11-22T00:31:22.111Z,20.08
2016-11-22T00:32:22.114Z,20.08
2016-11-22T00:33:21.780Z,20.05
2016-11-22T00:34:22.053Z,20.16
2016-11-22T00:35:22.125Z,20.07
2016-11-22T00:36:22.038Z,20.07
2016-11-22T00:37:22.027Z,20.07
2016-11-22T00:38:22.015Z,20.12
2016-11-22T00:39:21.990Z,20.1
2016-11-22T00:40:21.952Z,20.07
2016-11-22T00:41:21.939Z,20.13
2016-11-22T00:42:21.928Z,20.19
2016-11-22T00:43:21.907Z,20.2
2016-11-22T00:44:21.926Z,20.1
2016-11-22T00:45:21.880Z,20.17
2016-11-22T00:46:21.920Z,20.15
2016-11-22T00:47:21.869Z,20.08
2016-11-22T00:48:21.855Z,20.15
2016-11-22T00:49:21.512Z,20.05
2016-11-22T00:50:21.823Z,20.1
2016-11-22T00:51:21.824Z,20.1
2016-11-22T00:52:21.819Z,20.08
2016-11-22T00:53:21.427Z,20.15
2016-11-22T00:54:21.752Z,20.12
2016-11-22T00:55:21.711Z,20.17
2016-11-22T00:56:21.708Z,20.1
2016-11-22T00:57:21.718Z,20.12
2016-11-22T00:58:21.665Z,20.13
2016-11-22T00:59:21.688Z,20.1
2016-11-22T01:00:21.717Z,20.12
2016-11-22T01:01:21.628Z,20.2
2016-11-22T01:02:21.623Z,20.08
2016-11-22T01:03:21.630Z,20.08
2016-11-22T01:04:21.623Z,20.13
2016-11-22T01:05:21.615Z,20.08
2016-11-22T01:06:21.266Z,20.1
2016-11-22T01:07:21.619Z,20.15
2016-11-22T01:08:21.558Z,20.15
2016-11-22T01:09:21.507Z,20.08
2016-11-22T01:10:21.179Z,20.16
2016-11-22T01:11:21.163Z,20.22
2016-11-22T01:12:21.455Z,20.15
2016-11-22T01:13:20.816Z,20.12
2016-11-22T01:14:21.448Z,20.22
2016-11-22T01:15:21.389Z,20.23
2016-11-22T01:16:21.383Z,20.12
2016-11-22T01:17:21.377Z,20.19
2016-11-22T01:18:21.045Z,20.12
2016-11-22T01:19:21.340Z,20.15
2016-11-22T01:20:21.336Z,20.17
2016-11-22T01:21:21.313Z,20.15
2016-11-22T01:22:20.987Z,20.12
2016-11-22T01:23:21.288Z,20.19
2016-11-22T01:24:21.243Z,20.17
2016-11-22T01:25:21.226Z,20.07
2016-11-22T01:26:20.896Z,20.13
2016-11-22T01:27:21.198Z,20.16
2016-11-22T01:28:20.862Z,20.1
2016-11-22T01:29:21.155Z,20.12
2016-11-22T01:30:21.195Z,20.12
2016-11-22T01:31:20.830Z,20.08
2016-11-22T01:32:21.145Z,20.16
2016-11-22T01:33:21.133Z,20.16
2016-11-22T01:34:21.172Z,20.04
2016-11-22T01:35:20.778Z,20.12
2016-11-22T01:36:20.822Z,20.16
2016-11-22T01:37:21.078Z,20.19
2016-11-22T01:38:20.743Z,20.07
2016-11-22T01:39:20.754Z,20.1
2016-11-22T01:40:20.715Z,20.07
2016-11-22T01:41:21.014Z,20.08
2016-11-22T01:42:20.994Z,20.04
2016-11-22T01:43:20.997Z,20.05
2016-11-22T01:44:21.217Z,20.16
2016-11-22T01:45:20.657Z,20.13
2016-11-22T01:46:20.956Z,20.1
2016-11-22T01:47:20.908Z,20.13
2016-11-22T01:48:20.890Z,20.12
2016-11-22T01:49:20.526Z,20.2
2016-11-22T01:50:20.902Z,20.07
2016-11-22T01:51:20.835Z,20.12
2016-11-22T01:52:20.845Z,20.17
2016-11-22T01:53:20.505Z,20.13
2016-11-22T01:54:20.854Z,20.15
2016-11-22T01:55:20.785Z,20.15
2016-11-22T01:56:20.438Z,20.15
2016-11-22T01:57:20.444Z,20.04
2016-11-22T01:58:20.536Z,20.04
2016-11-22T01:59:20.728Z,20.12
2016-11-22T02:00:20.697Z,20.07
2016-11-22T02:01:20.695Z,20.16
2016-11-22T02:02:20.403Z,20.1
2016-11-22T02:03:20.636Z,20.13
2016-11-22T02:04:20.659Z,20.05
2016-11-22T02:05:20.610Z,20.05
2016-11-22T02:06:20.242Z,20.1
2016-11-22T02:07:20.543Z,20.2
2016-11-22T02:08:20.525Z,20.15
2016-11-22T02:09:20.526Z,20.16
2016-11-22T02:10:20.497Z,20.15
2016-11-22T02:11:20.480Z,20.13
2016-11-22T02:12:20.466Z,20.05
2016-11-22T02:13:20.451Z,20.16
2016-11-22T02:14:20.426Z,20.17
2016-11-22T02:15:20.414Z,20.23
2016-11-22T02:16:20.393Z,20.07
2016-11-22T02:17:20.381Z,20.1
2016-11-22T02:18:20.363Z,20.08
2016-11-22T02:19:20.347Z,20.08
2016-11-22T02:20:20.329Z,20.16
2016-11-22T02:21:20.314Z,20.1
2016-11-22T02:22:19.989Z,20.15
2016-11-22T02:23:20.286Z,20.1
2016-11-22T02:24:20.259Z,20.23
2016-11-22T02:25:20.249Z,20.13
2016-11-22T02:26:20.240Z,20.2
2016-11-22T02:27:20.221Z,20.15
2016-11-22T02:28:20.197Z,20.19
2016-11-22T02:29:20.178Z,20.1
2016-11-22T02:30:20.163Z,20.2
2016-11-22T02:31:19.833Z,20.22
2016-11-22T02:32:20.127Z,20.12
2016-11-22T02:33:20.118Z,20.08
2016-11-22T02:34:20.103Z,20.16
2016-11-22T02:35:20.091Z,20.17
2016-11-22T02:36:20.064Z,20.07
2016-11-22T02:37:20.052Z,20.17
2016-11-22T02:38:20.047Z,20.15
2016-11-22T02:39:20.032Z,20.04
2016-11-22T02:40:20.001Z,20.13
2016-11-22T02:41:19.994Z,20.07
2016-11-22T02:42:19.975Z,20.16
2016-11-22T02:43:19.637Z,20.17
2016-11-22T02:44:19.627Z,20.08
2016-11-22T02:45:19.924Z,20.13
2016-11-22T02:46:19.905Z,20.04
2016-11-22T02:47:19.887Z,20.04
2016-11-22T02:48:19.884Z,20.05
2016-11-22T02:49:19.850Z,20.2
2016-11-22T02:50:19.846Z,20.05
2016-11-22T02:51:19.822Z,20.15
2016-11-22T02:52:19.805Z,20.15
2016-11-22T02:53:19.794Z,20.07
2016-11-22T02:54:19.773Z,20.12
2016-11-22T02:55:19.445Z,20.15
2016-11-22T02:56:19.430Z,20.15
2016-11-22T02:57:19.729Z,20.15
2016-11-22T02:58:19.710Z,20.17
2016-11-22T02:59:19.697Z,20.15
2016-11-22T03:00:19.672Z,20.13
2016-11-22T03:01:19.657Z,20.17
2016-11-22T03:02:19.647Z,20.08
2016-11-22T03:03:19.628Z,20.15
2016-11-22T03:04:19.611Z,20.1
2016-11-22T03:05:19.590Z,20.15
2016-11-22T03:06:19.262Z,20.13
2016-11-22T03:07:19.565Z,20.12
2016-11-22T03:08:19.554Z,20.07
2016-11-22T03:09:19.529Z,20.19
2016-11-22T03:10:19.524Z,20.13
2016-11-22T03:11:19.500Z,20.13
2016-11-22T03:12:19.495Z,20.08
2016-11-22T03:13:19.470Z,20.12
2016-11-22T03:14:19.449Z,20.13
2016-11-22T03:15:19.431Z,20.12
2016-11-22T03:16:19.413Z,20.05
2016-11-22T03:17:19.391Z,20.12
2016-11-22T03:18:19.384Z,20.13
2016-11-22T03:19:19.379Z,20.08
2016-11-22T03:20:19.353Z,20.16
2016-11-22T03:21:19.334Z,20.17
2016-11-22T03:22:19.011Z,20.2
2016-11-22T03:23:19.301Z,20.12
2016-11-22T03:24:19.290Z,20.15
2016-11-22T03:25:19.263Z,20.15
2016-11-22T03:26:19.254Z,20.16
2016-11-22T03:27:19.236Z,20.08
2016-11-22T03:28:19.219Z,20.12
2016-11-22T03:29:19.203Z,20.13
2016-11-22T03:30:19.193Z,20.04
2016-11-22T03:31:19.171Z,19.98
2016-11-22T03:32:19.152Z,20.08
2016-11-22T03:33:18.830Z,19.98
2016-11-22T03:34:19.140Z,19.95
2016-11-22T03:35:19.104Z,20
2016-11-22T03:36:19.099Z,19.98
2016-11-22T03:37:19.071Z,19.97
2016-11-22T03:38:19.052Z,20.02
2016-11-22T03:39:19.043Z,20.02
2016-11-22T03:40:19.026Z,20.07
2016-11-22T03:41:19.012Z,19.97
2016-11-22T03:42:19.048Z,19.97
2016-11-22T03:43:19.035Z,19.97
2016-11-22T03:44:18.996Z,19.94
2016-11-22T03:45:19.027Z,19.98
2016-11-22T03:46:18.962Z,20.01
2016-11-22T03:47:18.310Z,19.98
2016-11-22T03:48:18.705Z,20
2016-11-22T03:49:18.925Z,19.95
2016-11-22T03:50:18.901Z,19.98
2016-11-22T03:51:18.874Z,20.02
2016-11-22T03:52:18.599Z,20.05
2016-11-22T03:53:18.863Z,20
2016-11-22T03:54:18.826Z,19.97
2016-11-22T03:55:18.849Z,19.98
2016-11-22T03:56:18.476Z,20.05
2016-11-22T03:57:18.491Z,19.98
2016-11-22T03:58:18.129Z,20.04
2016-11-22T03:59:18.509Z,19.94
2016-11-22T04:00:18.773Z,20.02
2016-11-22T04:01:18.736Z,19.98
2016-11-22T04:02:18.718Z,19.97
2016-11-22T04:03:18.677Z,19.92
2016-11-22T04:04:18.700Z,19.95
2016-11-22T04:05:18.410Z,19.94
2016-11-22T04:06:18.072Z,19.92
2016-11-22T04:07:18.650Z,20.01
2016-11-22T04:08:18.600Z,19.95
2016-11-22T04:09:18.604Z,19.89
2016-11-22T04:10:18.575Z,19.98
2016-11-22T04:11:17.961Z,19.98
2016-11-22T04:12:18.239Z,20.01
2016-11-22T04:13:18.542Z,19.98
2016-11-22T04:14:18.518Z,19.9
2016-11-22T04:15:18.252Z,20
2016-11-22T04:16:18.516Z,19.94
2016-11-22T04:17:18.473Z,19.97
2016-11-22T04:18:18.437Z,19.92
2016-11-22T04:19:18.460Z,20.01
2016-11-22T04:20:18.135Z,19.98
2016-11-22T04:21:18.404Z,19.98
2016-11-22T04:22:18.403Z,19.92
2016-11-22T04:23:18.389Z,19.95
2016-11-22T04:24:18.358Z,20
2016-11-22T04:25:17.698Z,19.98
2016-11-22T04:26:18.037Z,19.98
2016-11-22T04:27:18.310Z,19.95
2016-11-22T04:28:18.301Z,19.98
2016-11-22T04:29:17.975Z,19.97
2016-11-22T04:30:18.259Z,19.98
2016-11-22T04:31:18.215Z,19.98
2016-11-22T04:32:17.890Z,19.97
2016-11-22T04:33:17.889Z,19.98
2016-11-22T04:34:17.898Z,19.95
2016-11-22T04:35:17.849Z,19.98
2016-11-22T04:36:17.892Z,20.01
2016-11-22T04:37:18.135Z,19.97
2016-11-22T04:38:18.098Z,19.98
2016-11-22T04:39:18.092Z,19.95
2016-11-22T04:40:18.091Z,19.95
2016-11-22T04:41:17.743Z,19.98
2016-11-22T04:42:17.477Z,19.94
2016-11-22T04:43:18.077Z,19.94
2016-11-22T04:44:18.026Z,19.98
2016-11-22T04:45:18.041Z,19.94
2016-11-22T04:46:18.000Z,19.98
2016-11-22T04:47:17.684Z,19.95
2016-11-22T04:48:17.943Z,19.94
2016-11-22T04:49:17.619Z,19.98
2016-11-22T04:50:17.926Z,20.02
2016-11-22T04:51:17.591Z,19.94
2016-11-22T04:52:17.919Z,19.97
2016-11-22T04:53:17.587Z,19.97
2016-11-22T04:54:17.539Z,19.92
2016-11-22T04:55:17.531Z,20.04
2016-11-22T04:56:17.872Z,19.98
2016-11-22T04:57:17.822Z,19.97
2016-11-22T04:58:17.795Z,19.92
2016-11-22T04:59:17.804Z,19.94
2016-11-22T05:00:17.760Z,19.94
2016-11-22T05:01:17.731Z,19.97
2016-11-22T05:02:17.717Z,19.92
2016-11-22T05:03:17.758Z,19.97
2016-11-22T05:04:17.692Z,19.94
2016-11-22T05:05:17.694Z,19.94
2016-11-22T05:06:17.704Z,19.9
2016-11-22T05:07:17.642Z,19.95
2016-11-22T05:08:17.634Z,20.08
2016-11-22T05:09:17.335Z,20.12
2016-11-22T05:10:17.606Z,20.1
2016-11-22T05:11:17.677Z,20.2
2016-11-22T05:12:17.563Z,20.2
2016-11-22T05:13:17.270Z,20.26
2016-11-22T05:14:17.538Z,20.27
2016-11-22T05:15:17.224Z,20.3
2016-11-22T05:16:17.528Z,20.38
2016-11-22T05:17:17.524Z,20.37
2016-11-22T05:18:17.480Z,20.41
2016-11-22T05:19:17.190Z,20.38
2016-11-22T05:20:17.473Z,20.42
2016-11-22T05:21:17.468Z,20.53
2016-11-22T05:22:17.419Z,20.46
2016-11-22T05:23:17.423Z,20.48
2016-11-22T05:24:17.097Z,20.54
2016-11-22T05:25:17.401Z,20.46
2016-11-22T05:26:17.414Z,20.51
2016-11-22T05:27:18.622Z,20.48
2016-11-22T05:28:17.295Z,20.51
2016-11-22T05:29:17.320Z,20.46
2016-11-22T05:30:18.106Z,20.48
2016-11-22T05:31:16.925Z,20.61
2016-11-22T05:32:17.320Z,20.5
2016-11-22T05:33:16.909Z,20.57
2016-11-22T05:34:17.264Z,20.5
2016-11-22T05:35:17.225Z,20.5
2016-11-22T05:36:17.162Z,20.6
2016-11-22T05:37:16.597Z,20.58
2016-11-22T05:38:17.195Z,20.63
2016-11-22T05:39:17.177Z,20.56
2016-11-22T05:40:17.097Z,20.58
2016-11-22T05:41:16.852Z,20.57
2016-11-22T05:42:17.112Z,20.58
2016-11-22T05:43:17.114Z,20.46
2016-11-22T05:44:16.803Z,20.46
2016-11-22T05:45:17.071Z,20.61
2016-11-22T05:46:16.987Z,20.56
2016-11-22T05:47:16.961Z,20.57
2016-11-22T05:48:16.952Z,20.6
2016-11-22T05:49:16.937Z,20.58
2016-11-22T05:50:16.927Z,20.5
2016-11-22T05:51:16.903Z,20.6
2016-11-22T05:52:16.888Z,20.61
2016-11-22T05:53:16.872Z,20.6
2016-11-22T05:54:16.859Z,20.6
2016-11-22T05:55:16.846Z,20.61
2016-11-22T05:56:16.828Z,20.63
2016-11-22T05:57:16.810Z,20.57
2016-11-22T05:58:16.785Z,20.61
2016-11-22T05:59:16.776Z,20.51
2016-11-22T06:00:16.758Z,20.48
2016-11-22T06:01:16.749Z,20.48
2016-11-22T06:02:16.728Z,20.5
2016-11-22T06:03:16.709Z,20.5
2016-11-22T06:04:16.693Z,20.5
2016-11-22T06:05:17.040Z,20.44
2016-11-22T06:06:16.665Z,20.53
2016-11-22T06:07:16.333Z,20.51
2016-11-22T06:08:16.636Z,20.5
2016-11-22T06:09:16.617Z,20.53
2016-11-22T06:10:16.603Z,20.46
2016-11-22T06:11:16.580Z,20.53
2016-11-22T06:12:16.569Z,20.53
2016-11-22T06:13:16.550Z,20.48
2016-11-22T06:14:16.537Z,20.51
2016-11-22T06:15:16.514Z,20.6
2016-11-22T06:16:16.509Z,20.56
2016-11-22T06:17:16.487Z,20.6
2016-11-22T06:18:16.476Z,20.58
2016-11-22T06:19:16.457Z,20.61
2016-11-22T06:20:16.436Z,20.53
2016-11-22T06:21:16.426Z,20.54
2016-11-22T06:22:16.413Z,20.53
2016-11-22T06:23:16.424Z,20.5
2016-11-22T06:24:16.371Z,20.48
2016-11-22T06:25:16.361Z,20.5
2016-11-22T06:26:16.340Z,20.46
2016-11-22T06:27:16.325Z,20.48
2016-11-22T06:28:16.318Z,20.54
2016-11-22T06:29:16.295Z,20.5
2016-11-22T06:30:16.277Z,20.5
2016-11-22T06:31:16.271Z,20.54
2016-11-22T06:32:16.257Z,20.5
2016-11-22T06:33:16.229Z,20.51
2016-11-22T06:34:16.215Z,20.48
2016-11-22T06:35:16.193Z,20.44
2016-11-22T06:36:15.866Z,20.5
2016-11-22T06:37:16.165Z,20.46
2016-11-22T06:38:16.155Z,20.6
2016-11-22T06:39:16.136Z,20.61
2016-11-22T06:40:16.125Z,20.61
2016-11-22T06:41:16.102Z,20.69
2016-11-22T06:42:16.091Z,20.6
2016-11-22T06:43:16.061Z,20.61
2016-11-22T06:44:16.054Z,20.61
2016-11-22T06:45:16.035Z,20.61
2016-11-22T06:46:16.027Z,20.61
2016-11-22T06:47:16.005Z,20.58
2016-11-22T06:48:15.678Z,20.69
2016-11-22T06:49:15.971Z,20.64
2016-11-22T06:50:15.956Z,20.69
2016-11-22T06:51:15.955Z,20.71
2016-11-22T06:52:15.921Z,20.69
2016-11-22T06:53:15.918Z,20.71
2016-11-22T06:54:15.892Z,20.73
2016-11-22T06:55:15.870Z,20.68
2016-11-22T06:56:15.544Z,20.75
2016-11-22T06:57:15.849Z,20.64
2016-11-22T06:58:15.830Z,20.66
2016-11-22T06:59:15.816Z,20.75
2016-11-22T07:00:15.804Z,20.71
2016-11-22T07:01:15.469Z,20.73
2016-11-22T07:02:15.458Z,20.73
2016-11-22T07:03:15.784Z,20.76
2016-11-22T07:04:15.735Z,20.75
2016-11-22T07:05:15.717Z,20.76
2016-11-22T07:06:15.736Z,20.73
2016-11-22T07:07:15.691Z,20.73
2016-11-22T07:08:15.681Z,20.76
2016-11-22T07:09:15.656Z,20.72
2016-11-22T07:10:15.641Z,20.73
2016-11-22T07:11:15.302Z,20.72
2016-11-22T07:12:15.613Z,20.69
2016-11-22T07:13:15.594Z,20.66
2016-11-22T07:14:15.572Z,20.63
2016-11-22T07:15:15.575Z,20.6
2016-11-22T07:16:15.549Z,20.6
2016-11-22T07:17:15.536Z,20.68
2016-11-22T07:18:15.506Z,20.63
2016-11-22T07:19:15.496Z,20.63
2016-11-22T07:20:15.480Z,20.69
2016-11-22T07:21:15.464Z,20.71
2016-11-22T07:22:15.451Z,20.63
2016-11-22T07:23:15.433Z,20.61
2016-11-22T07:24:15.418Z,20.63
2016-11-22T07:25:15.410Z,20.66
2016-11-22T07:26:15.385Z,20.69
2016-11-22T07:27:15.360Z,20.73
2016-11-22T07:28:15.352Z,20.75
2016-11-22T07:29:15.329Z,20.79
2016-11-22T07:30:15.313Z,20.76
2016-11-22T07:31:15.303Z,20.64
2016-11-22T07:32:15.299Z,20.68
2016-11-22T07:33:15.271Z,20.71
2016-11-22T07:34:15.256Z,20.72
2016-11-22T07:35:15.238Z,20.78
2016-11-22T07:36:15.230Z,20.76
2016-11-22T07:37:15.211Z,20.72
2016-11-22T07:38:14.879Z,20.75
2016-11-22T07:39:15.185Z,20.73
2016-11-22T07:40:15.175Z,20.76
2016-11-22T07:41:15.144Z,20.75
2016-11-22T07:42:15.124Z,20.79
2016-11-22T07:43:15.105Z,20.72
2016-11-22T07:44:15.095Z,20.76
2016-11-22T07:45:15.113Z,20.64
2016-11-22T07:46:15.063Z,20.68
2016-11-22T07:47:15.046Z,20.6
2016-11-22T07:48:15.029Z,20.71
2016-11-22T07:49:15.016Z,20.66
2016-11-22T07:50:15.001Z,20.63
2016-11-22T07:51:14.987Z,20.66
2016-11-22T07:52:14.964Z,20.63
2016-11-22T07:53:14.955Z,20.68
2016-11-22T07:54:14.934Z,20.68
2016-11-22T07:55:14.292Z,20.68
2016-11-22T07:56:14.583Z,20.71
2016-11-22T07:57:14.894Z,20.6
2016-11-22T07:58:14.867Z,20.71
2016-11-22T07:59:14.850Z,20.6
2016-11-22T08:00:14.842Z,20.66
2016-11-22T08:01:14.509Z,20.66
2016-11-22T08:02:14.808Z,20.64
2016-11-22T08:03:14.785Z,20.66
2016-11-22T08:04:14.811Z,20.61
2016-11-22T08:05:14.445Z,20.6
2016-11-22T08:06:14.737Z,20.71
2016-11-22T08:07:14.729Z,20.64
2016-11-22T08:08:14.710Z,20.68
2016-11-22T08:09:14.694Z,20.72
2016-11-22T08:10:14.682Z,20.76
2016-11-22T08:11:14.660Z,20.71
2016-11-22T08:12:14.337Z,20.75
2016-11-22T08:13:14.319Z,20.75
2016-11-22T08:14:14.622Z,20.75
2016-11-22T08:15:14.601Z,20.75
2016-11-22T08:16:14.590Z,20.71
2016-11-22T08:17:14.571Z,20.75
2016-11-22T08:18:14.551Z,20.73
2016-11-22T08:19:14.542Z,20.75
2016-11-22T08:20:14.788Z,20.76
2016-11-22T08:21:14.505Z,20.76
2016-11-22T08:22:14.478Z,20.72
2016-11-22T08:23:14.471Z,20.66
2016-11-22T08:24:14.456Z,20.71
2016-11-22T08:25:14.125Z,20.79
2016-11-22T08:26:14.130Z,20.76
2016-11-22T08:27:14.413Z,20.76
2016-11-22T08:28:14.466Z,20.78
2016-11-22T08:29:14.372Z,20.71
2016-11-22T08:30:14.361Z,20.71
2016-11-22T08:31:14.345Z,20.66
2016-11-22T08:32:14.329Z,20.73
2016-11-22T08:33:14.312Z,20.75
2016-11-22T08:34:14.297Z,20.76
2016-11-22T08:35:14.281Z,20.81
2016-11-22T08:36:14.256Z,20.72
2016-11-22T08:37:14.243Z,20.71
2016-11-22T08:38:14.234Z,20.63
2016-11-22T08:39:14.223Z,20.75
2016-11-22T08:40:14.197Z,20.72
2016-11-22T08:41:14.196Z,20.79
2016-11-22T08:42:13.531Z,20.82
2016-11-22T08:43:13.839Z,20.69
2016-11-22T08:44:14.168Z,20.82
2016-11-22T08:45:14.129Z,20.81
2016-11-22T08:46:13.834Z,20.83
2016-11-22T08:47:14.083Z,20.79
2016-11-22T08:48:14.070Z,20.87
2016-11-22T08:49:14.070Z,20.83
2016-11-22T08:50:14.041Z,20.87
2016-11-22T08:51:14.030Z,20.83
2016-11-22T08:52:14.033Z,20.9
2016-11-22T08:53:13.988Z,20.87
2016-11-22T08:54:13.984Z,20.88
2016-11-22T08:55:13.959Z,20.87
2016-11-22T08:56:13.950Z,20.88
2016-11-22T08:57:13.648Z,20.87
2016-11-22T08:58:13.599Z,20.85
2016-11-22T08:59:13.892Z,20.87
2016-11-22T09:00:13.883Z,20.85
2016-11-22T09:01:13.546Z,20.72
2016-11-22T09:02:13.859Z,20.13
2016-11-22T09:03:13.842Z,19.6
2016-11-22T09:04:13.492Z,19.25
2016-11-22T09:05:13.491Z,19.07
2016-11-22T09:06:13.789Z,18.99
2016-11-22T09:07:13.768Z,18.84
2016-11-22T09:08:13.759Z,18.74
2016-11-22T09:09:13.746Z,18.75
2016-11-22T09:10:13.721Z,18.76
2016-11-22T09:11:13.428Z,18.84
2016-11-22T09:12:13.697Z,18.65
2016-11-22T09:13:13.673Z,18.64
2016-11-22T09:14:13.650Z,18.6
2016-11-22T09:15:13.643Z,18.56
2016-11-22T09:16:13.633Z,18.41
2016-11-22T09:17:13.293Z,18.23
2016-11-22T09:18:13.591Z,18.19
2016-11-22T09:19:13.576Z,18.1
2016-11-22T09:20:13.560Z,18.01
2016-11-22T09:21:13.551Z,18.01
2016-11-22T09:22:13.211Z,17.95
2016-11-22T09:23:13.505Z,17.95
2016-11-22T09:24:13.494Z,18.07
2016-11-22T09:25:13.480Z,18.25
2016-11-22T09:26:13.460Z,18.5
2016-11-22T09:27:13.446Z,18.76
2016-11-22T09:28:13.116Z,19.12
2016-11-22T09:29:13.406Z,19.42
2016-11-22T09:30:13.390Z,19.79
2016-11-22T09:31:13.069Z,19.82
2016-11-22T09:32:13.356Z,19.92
2016-11-22T09:33:13.344Z,20.12
2016-11-22T09:34:13.338Z,20.22
2016-11-22T09:35:13.354Z,20.22
2016-11-22T09:36:12.980Z,20.3
2016-11-22T09:37:13.282Z,20.35
2016-11-22T09:38:13.260Z,20.34
2016-11-22T09:39:13.246Z,20.34
2016-11-22T09:40:13.242Z,20.44
2016-11-22T09:41:13.217Z,20.51
2016-11-22T09:42:13.198Z,20.48
2016-11-22T09:43:12.859Z,20.48
2016-11-22T09:44:13.191Z,20.51
2016-11-22T09:45:13.145Z,20.56
2016-11-22T09:46:13.138Z,20.58
2016-11-22T09:47:13.118Z,20.58
2016-11-22T09:48:13.101Z,20.64
2016-11-22T09:49:13.086Z,20.68
2016-11-22T09:50:13.064Z,20.64
2016-11-22T09:51:13.065Z,20.64
2016-11-22T09:52:13.043Z,20.68
2016-11-22T09:53:12.708Z,20.73
2016-11-22T09:54:12.999Z,20.81
2016-11-22T09:55:12.992Z,20.76
2016-11-22T09:56:12.975Z,20.73
2016-11-22T09:57:12.949Z,20.75
2016-11-22T09:58:12.953Z,20.79
2016-11-22T09:59:12.924Z,20.81
2016-11-22T10:00:12.592Z,20.78
2016-11-22T10:01:12.900Z,20.73
2016-11-22T10:02:12.559Z,20.69
2016-11-22T10:03:12.859Z,20.72
2016-11-22T10:04:12.841Z,20.76
2016-11-22T10:05:12.524Z,20.76
2016-11-22T10:06:12.811Z,20.73
2016-11-22T10:07:12.794Z,20.82
2016-11-22T10:08:12.787Z,20.71
2016-11-22T10:09:12.769Z,20.73
2016-11-22T10:10:12.747Z,20.76
2016-11-22T10:11:12.739Z,20.76
2016-11-22T10:12:12.715Z,20.78
2016-11-22T10:13:12.701Z,20.76
2016-11-22T10:14:12.683Z,20.79
2016-11-22T10:15:12.666Z,20.81
2016-11-22T10:16:12.653Z,20.72
2016-11-22T10:17:12.634Z,20.82
2016-11-22T10:18:12.619Z,20.82
2016-11-22T10:19:12.606Z,20.75
2016-11-22T10:20:12.590Z,20.76
2016-11-22T10:21:12.571Z,20.75
2016-11-22T10:22:12.553Z,20.78
2016-11-22T10:23:12.542Z,20.79
2016-11-22T10:24:12.530Z,20.82
2016-11-22T10:25:12.508Z,20.81
2016-11-22T10:26:12.489Z,20.79
2016-11-22T10:27:12.474Z,20.76
2016-11-22T10:28:12.473Z,20.75
2016-11-22T10:29:12.447Z,20.75
2016-11-22T10:30:12.424Z,20.69
2016-11-22T10:31:12.411Z,20.75
2016-11-22T10:32:12.083Z,20.76
2016-11-22T10:33:12.385Z,20.81
2016-11-22T10:34:12.359Z,20.82
2016-11-22T10:35:12.032Z,20.75
2016-11-22T10:36:12.325Z,20.85
2016-11-22T10:37:12.006Z,20.85
2016-11-22T10:38:12.340Z,20.81
2016-11-22T10:39:12.277Z,20.91
2016-11-22T10:40:12.272Z,20.85
2016-11-22T10:41:12.243Z,20.85
2016-11-22T10:42:12.234Z,20.82
2016-11-22T10:43:12.219Z,20.85
2016-11-22T10:44:12.204Z,20.93
2016-11-22T10:45:12.190Z,20.85
2016-11-22T10:46:12.181Z,20.9
2016-11-22T10:47:12.154Z,20.88
2016-11-22T10:48:12.129Z,20.85
2016-11-22T10:49:12.121Z,20.85
2016-11-22T10:50:12.105Z,20.87
2016-11-22T10:51:12.089Z,20.93
2016-11-22T10:52:12.076Z,20.93
2016-11-22T10:53:11.745Z,20.93
2016-11-22T10:54:12.056Z,20.83
2016-11-22T10:55:12.029Z,20.91
2016-11-22T10:56:11.697Z,20.88
2016-11-22T10:57:12.007Z,20.91
2016-11-22T10:58:11.981Z,20.87
2016-11-22T10:59:11.966Z,20.81
2016-11-22T11:00:11.639Z,20.82
2016-11-22T11:01:11.934Z,20.85
2016-11-22T11:02:11.916Z,20.83
2016-11-22T11:03:11.905Z,20.9
2016-11-22T11:04:11.886Z,20.83
2016-11-22T11:05:11.867Z,20.88
2016-11-22T11:06:11.539Z,20.91
2016-11-22T11:07:11.524Z,20.83
2016-11-22T11:08:11.820Z,20.83
2016-11-22T11:09:11.516Z,20.87
2016-11-22T11:10:11.799Z,20.85
2016-11-22T11:11:11.785Z,20.9
2016-11-22T11:12:11.760Z,20.82
2016-11-22T11:13:11.748Z,20.87
2016-11-22T11:14:11.732Z,20.85
2016-11-22T11:15:11.399Z,20.79
2016-11-22T11:16:11.708Z,20.85
2016-11-22T11:17:11.356Z,20.87
2016-11-22T11:18:11.666Z,20.82
2016-11-22T11:19:11.326Z,20.85
2016-11-22T11:20:11.645Z,20.81
2016-11-22T11:21:11.615Z,20.76
2016-11-22T11:22:11.288Z,20.81
2016-11-22T11:23:11.284Z,20.87
2016-11-22T11:24:11.569Z,20.87
2016-11-22T11:25:11.547Z,20.9
2016-11-22T11:26:11.218Z,20.85
2016-11-22T11:27:11.522Z,20.88
2016-11-22T11:28:11.506Z,20.78
2016-11-22T11:29:11.488Z,20.17
2016-11-22T11:30:11.167Z,19.55
2016-11-22T11:31:11.138Z,19.23
2016-11-22T11:32:11.441Z,18.93
2016-11-22T11:33:11.433Z,19.09
2016-11-22T11:34:11.416Z,19.25
2016-11-22T11:35:11.403Z,19.62
2016-11-22T11:36:11.379Z,19.8
2016-11-22T11:37:11.048Z,20.12
2016-11-22T11:38:11.346Z,20.2
2016-11-22T11:39:11.326Z,20.5
2016-11-22T11:40:11.002Z,20.58
2016-11-22T11:41:11.303Z,20.76
2016-11-22T11:42:11.283Z,20.76
2016-11-22T11:43:10.947Z,20.91
2016-11-22T11:44:11.250Z,20.96
2016-11-22T11:45:11.262Z,20.93
2016-11-22T11:46:11.217Z,20.9
2016-11-22T11:47:11.208Z,20.96
2016-11-22T11:48:11.207Z,21.01
2016-11-22T11:49:11.180Z,21.06
2016-11-22T11:50:11.162Z,21.06
2016-11-22T11:51:11.143Z,20.98
2016-11-22T11:52:11.124Z,21.09
2016-11-22T11:53:11.111Z,21.12
2016-11-22T11:54:11.098Z,21.16
2016-11-22T11:55:10.762Z,21.13
2016-11-22T11:56:11.056Z,21.12
2016-11-22T11:57:11.055Z,21.13
2016-11-22T11:58:11.038Z,21.12
2016-11-22T11:59:11.032Z,21.16
2016-11-22T12:00:11.001Z,21.18
2016-11-22T12:01:10.981Z,21.12
2016-11-22T12:02:10.644Z,21.09
2016-11-22T12:03:10.951Z,21.12
2016-11-22T12:04:10.926Z,21.18
2016-11-22T12:05:10.921Z,21.18
2016-11-22T12:06:10.901Z,21.16
2016-11-22T12:07:10.880Z,21.18
2016-11-22T12:08:10.550Z,21.18
2016-11-22T12:09:10.853Z,21.16
2016-11-22T12:10:10.844Z,21.24
2016-11-22T12:11:10.831Z,21.3
2016-11-22T12:12:10.802Z,21.27
2016-11-22T12:13:10.791Z,21.19
2016-11-22T12:14:10.770Z,21.19
2016-11-22T12:15:10.760Z,21.12
2016-11-22T12:16:10.745Z,21.13
2016-11-22T12:17:10.726Z,21.12
2016-11-22T12:18:10.714Z,21.12
2016-11-22T12:19:10.698Z,21.11
2016-11-22T12:20:10.684Z,21.05
2016-11-22T12:21:10.661Z,21.18
2016-11-22T12:22:10.646Z,21.09
2016-11-22T12:23:10.315Z,21.16
2016-11-22T12:24:10.630Z,21.12
2016-11-22T12:25:10.282Z,21.05
2016-11-22T12:26:10.593Z,21.11
2016-11-22T12:27:10.261Z,21.09
2016-11-22T12:28:10.544Z,21.09
2016-11-22T12:29:10.551Z,21.08
2016-11-22T12:30:10.516Z,21.12
2016-11-22T12:31:10.503Z,21.09
2016-11-22T12:32:10.486Z,21.08
2016-11-22T12:33:10.472Z,21.12
2016-11-22T12:34:10.455Z,21.06
2016-11-22T12:35:10.456Z,20.97
2016-11-22T12:36:10.421Z,21.09
2016-11-22T12:37:10.416Z,21.06
2016-11-22T12:38:10.406Z,21.01
2016-11-22T12:39:10.379Z,20.96
2016-11-22T12:40:10.362Z,21.01
2016-11-22T12:41:10.342Z,20.98
2016-11-22T12:42:10.330Z,21.03
2016-11-22T12:43:10.318Z,21.06
2016-11-22T12:44:09.988Z,20.98
2016-11-22T12:45:09.970Z,21
2016-11-22T12:46:10.265Z,20.97
2016-11-22T12:47:10.253Z,20.98
2016-11-22T12:48:10.235Z,20.97
2016-11-22T12:49:10.217Z,20.97
2016-11-22T12:50:09.891Z,20.93
2016-11-22T12:51:10.193Z,20.96
2016-11-22T12:52:09.853Z,20.96
2016-11-22T12:53:10.155Z,20.97
2016-11-22T12:54:10.146Z,20.98
2016-11-22T12:55:10.126Z,21
2016-11-22T12:56:10.101Z,20.88